createdAt,value
2018-12-27T00:00:01.465Z,21.69
2018-12-27T00:02:29.675Z,21.70
2018-12-27T00:04:57.837Z,21.82
2018-12-27T00:07:26.046Z,21.75
2018-12-27T00:09:54.233Z,21.70
2018-12-27T00:12:22.393Z,21.60
2018-12-27T00:14:50.526Z,21.60
2018-12-27T00:17:18.715Z,21.66
2018-12-27T00:19:46.921Z,21.63
2018-12-27T00:22:15.087Z,21.63
2018-12-27T00:24:43.291Z,21.58
2018-12-27T00:27:11.453Z,21.60
2018-12-27T00:29:39.601Z,21.62
2018-12-27T00:32:07.965Z,21.58
2018-12-27T00:34:36.335Z,21.63
2018-12-27T00:37:04.654Z,21.56
2018-12-27T00:39:33.048Z,21.63
2018-12-27T00:42:01.421Z,21.58
2018-12-27T00:44:29.822Z,21.49
2018-12-27T00:46:58.146Z,21.53
2018-12-27T00:49:26.550Z,21.61
2018-12-27T00:51:54.874Z,21.55
2018-12-27T00:54:23.374Z,21.48
2018-12-27T00:56:51.670Z,21.54
2018-12-27T00:59:20.020Z,21.54
2018-12-27T01:01:48.454Z,21.55
2018-12-27T01:04:16.780Z,21.48
2018-12-27T01:06:45.130Z,21.52
2018-12-27T01:09:13.541Z,21.48
2018-12-27T01:11:41.871Z,21.46
2018-12-27T01:14:10.177Z,21.46
2018-12-27T01:16:38.571Z,21.52
2018-12-27T01:19:06.946Z,21.48
2018-12-27T01:21:35.251Z,21.44
2018-12-27T01:24:03.591Z,21.39
2018-12-27T01:26:31.939Z,21.46
2018-12-27T01:29:00.340Z,21.42
2018-12-27T01:31:28.690Z,21.41
2018-12-27T01:33:57.045Z,21.39
2018-12-27T01:36:25.398Z,21.39
2018-12-27T01:38:53.760Z,21.40
2018-12-27T01:41:22.179Z,21.38
2018-12-27T01:43:50.600Z,21.38
2018-12-27T01:46:18.972Z,21.37
2018-12-27T01:48:47.280Z,21.43
2018-12-27T01:51:15.621Z,21.40
2018-12-27T01:53:43.968Z,21.39
2018-12-27T01:56:12.343Z,21.41
2018-12-27T01:58:40.661Z,21.38
2018-12-27T02:01:09.134Z,21.37
2018-12-27T02:03:37.513Z,21.42
2018-12-27T02:06:05.873Z,21.40
2018-12-27T02:08:34.257Z,21.36
2018-12-27T02:11:02.584Z,21.37
2018-12-27T02:13:30.957Z,21.36
2018-12-27T02:15:59.297Z,21.35
2018-12-27T02:18:27.638Z,21.36
2018-12-27T02:20:55.994Z,21.35
2018-12-27T02:23:24.364Z,21.33
2018-12-27T02:25:52.721Z,21.31
2018-12-27T02:28:21.048Z,21.32
2018-12-27T02:30:49.387Z,21.32
2018-12-27T02:33:17.696Z,21.35
2018-12-27T02:35:46.023Z,21.31
2018-12-27T02:38:14.378Z,21.33
2018-12-27T02:40:42.702Z,21.34
2018-12-27T02:43:11.060Z,21.34
2018-12-27T02:45:39.397Z,21.34
2018-12-27T02:48:07.767Z,21.33
2018-12-27T02:50:36.098Z,21.33
2018-12-27T02:53:04.470Z,21.29
2018-12-27T02:55:32.764Z,21.30
2018-12-27T02:58:01.094Z,21.33
2018-12-27T03:00:29.427Z,21.29
2018-12-27T03:02:57.709Z,21.30
2018-12-27T03:05:26.056Z,21.30
2018-12-27T03:07:54.414Z,21.33
2018-12-27T03:10:22.755Z,21.30
2018-12-27T03:12:51.116Z,21.30
2018-12-27T03:15:19.504Z,21.26
2018-12-27T03:17:47.910Z,21.26
2018-12-27T03:20:16.369Z,21.27
2018-12-27T03:22:44.665Z,21.27
2018-12-27T03:25:13.030Z,21.28
2018-12-27T03:27:41.345Z,21.26
2018-12-27T03:30:09.695Z,21.16
2018-12-27T03:32:38.014Z,21.19
2018-12-27T03:35:06.380Z,21.21
2018-12-27T03:37:34.739Z,21.23
2018-12-27T03:40:03.036Z,21.21
2018-12-27T03:42:31.375Z,21.26
2018-12-27T03:44:59.701Z,21.27
2018-12-27T03:47:28.048Z,21.21
2018-12-27T03:49:56.370Z,21.28
2018-12-27T03:52:24.719Z,21.32
2018-12-27T03:54:53.120Z,21.36
2018-12-27T03:57:21.483Z,21.38
2018-12-27T03:59:49.888Z,21.20
2018-12-27T04:02:18.245Z,21.16
2018-12-27T04:04:46.602Z,21.13
2018-12-27T04:07:14.944Z,21.16
2018-12-27T04:09:43.263Z,21.15
2018-12-27T04:12:11.614Z,21.13
2018-12-27T04:14:39.990Z,21.16
2018-12-27T04:17:08.131Z,21.16
2018-12-27T04:19:36.314Z,21.18
2018-12-27T04:22:04.497Z,21.21
2018-12-27T04:24:32.681Z,21.18
2018-12-27T04:27:00.826Z,21.17
2018-12-27T04:29:29.015Z,21.16
2018-12-27T04:31:57.207Z,21.23
2018-12-27T04:34:25.395Z,21.16
2018-12-27T04:36:53.801Z,21.17
2018-12-27T04:39:22.026Z,21.20
2018-12-27T04:41:50.231Z,21.17
2018-12-27T04:44:18.477Z,21.12
2018-12-27T04:46:46.604Z,21.18
2018-12-27T04:49:14.749Z,21.14
2018-12-27T04:51:42.914Z,21.18
2018-12-27T04:54:11.123Z,21.15
2018-12-27T04:56:39.288Z,21.19
2018-12-27T04:59:07.500Z,21.15
2018-12-27T05:01:35.662Z,21.15
2018-12-27T05:04:03.793Z,21.16
2018-12-27T05:06:31.973Z,21.18
2018-12-27T05:09:00.093Z,21.13
2018-12-27T05:11:28.301Z,21.15
2018-12-27T05:13:58.184Z,21.15
2018-12-27T05:16:26.499Z,21.14
2018-12-27T05:18:54.678Z,21.14
2018-12-27T05:21:22.848Z,21.17
2018-12-27T05:23:51.043Z,21.17
2018-12-27T05:26:19.264Z,21.12
2018-12-27T05:28:47.430Z,21.15
2018-12-27T05:31:15.638Z,21.15
2018-12-27T05:33:43.816Z,21.13
2018-12-27T05:36:11.983Z,21.09
2018-12-27T05:38:40.162Z,21.10
2018-12-27T05:41:08.292Z,21.10
2018-12-27T05:43:36.515Z,21.09
2018-12-27T05:46:04.680Z,21.12
2018-12-27T05:48:32.851Z,21.10
2018-12-27T05:51:01.002Z,21.10
2018-12-27T05:53:29.139Z,21.12
2018-12-27T05:55:57.334Z,21.07
2018-12-27T05:58:25.486Z,21.09
2018-12-27T06:00:53.624Z,21.06
2018-12-27T06:03:21.773Z,21.08
2018-12-27T06:05:49.936Z,21.07
2018-12-27T06:08:18.094Z,21.05
2018-12-27T06:10:46.253Z,21.07
2018-12-27T06:13:14.423Z,21.08
2018-12-27T06:15:42.662Z,21.10
2018-12-27T06:18:10.791Z,21.06
2018-12-27T06:20:38.999Z,21.08
2018-12-27T06:23:07.174Z,21.11
2018-12-27T06:25:35.333Z,21.14
2018-12-27T06:28:03.520Z,21.11
2018-12-27T06:30:31.661Z,21.11
2018-12-27T06:32:59.839Z,21.07
2018-12-27T06:35:28.014Z,21.08
2018-12-27T06:37:56.222Z,21.06
2018-12-27T06:40:24.393Z,21.05
2018-12-27T06:42:52.575Z,21.06
2018-12-27T06:45:20.721Z,21.05
2018-12-27T06:47:48.888Z,21.08
2018-12-27T06:50:17.099Z,21.09
2018-12-27T06:52:45.444Z,21.02
2018-12-27T06:55:13.652Z,21.03
2018-12-27T06:57:41.810Z,21.07
2018-12-27T07:00:09.951Z,20.99
2018-12-27T07:02:38.217Z,21.03
2018-12-27T07:05:06.521Z,21.07
2018-12-27T07:07:34.673Z,21.03
2018-12-27T07:10:02.899Z,21.05
2018-12-27T07:12:31.014Z,21.07
2018-12-27T07:14:59.231Z,21.02
2018-12-27T07:17:27.336Z,21.01
2018-12-27T07:19:55.594Z,21.02
2018-12-27T07:22:23.824Z,20.99
2018-12-27T07:24:52.023Z,21.02
2018-12-27T07:27:20.228Z,21.01
2018-12-27T07:29:48.402Z,21.30
2018-12-27T07:32:16.617Z,21.32
2018-12-27T07:34:44.886Z,21.24
2018-12-27T07:37:13.119Z,21.18
2018-12-27T07:39:41.320Z,21.32
2018-12-27T07:42:09.609Z,21.23
2018-12-27T07:44:37.807Z,21.30
2018-12-27T07:47:06.122Z,21.20
2018-12-27T07:49:34.373Z,21.17
2018-12-27T07:52:02.612Z,21.35
2018-12-27T07:54:30.775Z,20.99
2018-12-27T07:56:58.991Z,21.22
2018-12-27T07:59:27.190Z,21.12
2018-12-27T08:01:55.398Z,21.08
2018-12-27T08:04:23.599Z,21.06
2018-12-27T08:06:51.890Z,21.03
2018-12-27T08:09:20.168Z,20.98
2018-12-27T08:11:48.423Z,20.98
2018-12-27T08:14:16.619Z,20.96
2018-12-27T08:16:44.877Z,20.94
2018-12-27T08:19:13.216Z,20.97
2018-12-27T08:21:41.431Z,20.95
2018-12-27T08:24:09.701Z,21.00
2018-12-27T08:26:37.873Z,20.96
2018-12-27T08:29:06.107Z,20.96
2018-12-27T08:31:34.291Z,20.94
2018-12-27T08:34:02.519Z,20.91
2018-12-27T08:36:30.764Z,20.97
2018-12-27T08:38:59.016Z,21.11
2018-12-27T08:41:27.209Z,21.07
2018-12-27T08:43:55.443Z,20.96
2018-12-27T08:46:23.754Z,20.95
2018-12-27T08:48:51.921Z,20.96
2018-12-27T08:51:20.230Z,20.97
2018-12-27T08:53:48.457Z,20.99
2018-12-27T08:56:16.698Z,20.94
2018-12-27T08:58:44.913Z,20.97
2018-12-27T09:01:13.101Z,20.91
2018-12-27T09:03:41.300Z,20.96
2018-12-27T09:06:09.533Z,20.94
2018-12-27T09:08:37.696Z,20.91
2018-12-27T09:11:05.932Z,20.89
2018-12-27T09:13:34.182Z,20.88
2018-12-27T09:16:02.375Z,20.88
2018-12-27T09:18:30.580Z,20.92
2018-12-27T09:20:58.779Z,20.83
2018-12-27T09:23:27.028Z,20.84
2018-12-27T09:25:55.210Z,20.86
2018-12-27T09:28:23.406Z,20.88
2018-12-27T09:30:51.666Z,20.84
2018-12-27T09:33:19.891Z,20.83
2018-12-27T09:35:48.089Z,20.83
2018-12-27T09:38:16.421Z,20.86
2018-12-27T09:40:44.597Z,20.84
2018-12-27T09:43:12.826Z,20.84
2018-12-27T09:45:41.043Z,20.83
2018-12-27T09:48:09.274Z,20.85
2018-12-27T09:50:37.509Z,20.91
2018-12-27T09:53:05.735Z,20.96
2018-12-27T09:55:33.930Z,20.81
2018-12-27T09:58:02.162Z,20.86
2018-12-27T10:00:30.361Z,20.83
2018-12-27T10:02:58.634Z,20.87
2018-12-27T10:05:33.586Z,20.84
2018-12-27T10:07:57.576Z,20.81
2018-12-27T10:10:25.897Z,20.84
2018-12-27T10:12:54.142Z,20.83
2018-12-27T10:15:22.357Z,20.91
2018-12-27T10:17:50.545Z,20.91
2018-12-27T10:20:18.774Z,20.88
2018-12-27T10:22:47.024Z,20.87
2018-12-27T10:25:15.203Z,20.94
2018-12-27T10:27:43.367Z,20.84
2018-12-27T10:30:11.591Z,20.82
2018-12-27T10:32:39.796Z,20.82
2018-12-27T10:35:08.054Z,20.81
2018-12-27T10:37:36.285Z,20.85
2018-12-27T10:40:05.883Z,20.82
2018-12-27T10:42:34.022Z,20.81
2018-12-27T10:45:02.237Z,20.79
2018-12-27T10:47:30.489Z,20.75
2018-12-27T10:49:58.702Z,20.76
2018-12-27T10:52:26.916Z,20.69
2018-12-27T10:54:55.082Z,20.79
2018-12-27T10:57:23.290Z,20.71
2018-12-27T10:59:51.487Z,20.74
2018-12-27T11:02:19.688Z,20.69
2018-12-27T11:04:47.914Z,20.69
2018-12-27T11:07:16.151Z,20.65
2018-12-27T11:09:44.374Z,20.99
2018-12-27T11:12:12.554Z,20.89
2018-12-27T11:14:40.749Z,20.80
2018-12-27T11:17:09.004Z,20.82
2018-12-27T11:19:37.216Z,20.76
2018-12-27T11:22:05.450Z,20.75
2018-12-27T11:24:33.644Z,20.71
2018-12-27T11:27:01.880Z,20.70
2018-12-27T11:29:30.042Z,20.72
2018-12-27T11:31:58.242Z,20.82
2018-12-27T11:34:26.465Z,20.75
2018-12-27T11:36:54.689Z,20.73
2018-12-27T11:39:22.901Z,20.82
2018-12-27T11:41:51.173Z,20.75
2018-12-27T11:44:19.382Z,20.83
2018-12-27T11:46:47.586Z,20.72
2018-12-27T11:49:15.817Z,20.79
2018-12-27T11:51:44.006Z,20.77
2018-12-27T11:54:12.234Z,20.75
2018-12-27T11:56:40.449Z,20.73
2018-12-27T11:59:08.659Z,20.71
2018-12-27T12:01:36.914Z,20.72
2018-12-27T12:04:05.141Z,20.73
2018-12-27T12:06:33.358Z,20.78
2018-12-27T12:09:01.606Z,20.74
2018-12-27T12:11:29.784Z,20.73
2018-12-27T12:13:57.968Z,20.72
2018-12-27T12:16:26.194Z,20.92
2018-12-27T12:18:54.389Z,21.08
2018-12-27T12:21:22.651Z,21.09
2018-12-27T12:23:50.840Z,21.08
2018-12-27T12:26:19.028Z,21.11
2018-12-27T12:28:47.258Z,21.13
2018-12-27T12:31:15.436Z,21.10
2018-12-27T12:33:43.681Z,21.06
2018-12-27T12:36:11.927Z,21.08
2018-12-27T12:38:40.149Z,21.06
2018-12-27T12:41:08.409Z,21.07
2018-12-27T12:43:36.723Z,21.05
2018-12-27T12:46:04.931Z,21.07
2018-12-27T12:48:33.145Z,21.06
2018-12-27T12:51:01.372Z,21.08
2018-12-27T12:53:29.591Z,21.12
2018-12-27T12:55:57.891Z,21.06
2018-12-27T12:58:26.158Z,21.05
2018-12-27T13:00:54.438Z,21.06
2018-12-27T13:03:22.638Z,21.04
2018-12-27T13:05:50.855Z,21.05
2018-12-27T13:08:19.077Z,21.06
2018-12-27T13:10:47.287Z,21.12
2018-12-27T13:13:15.464Z,21.08
2018-12-27T13:15:43.711Z,21.04
2018-12-27T13:18:12.006Z,21.09
2018-12-27T13:20:40.255Z,21.08
2018-12-27T13:23:08.549Z,21.11
2018-12-27T13:25:38.557Z,21.10
2018-12-27T13:28:06.794Z,21.09
2018-12-27T13:30:35.012Z,21.08
2018-12-27T13:33:04.082Z,21.15
2018-12-27T13:35:32.365Z,21.11
2018-12-27T13:38:00.570Z,21.14
2018-12-27T13:40:29.501Z,20.67
2018-12-27T13:42:58.442Z,21.15
2018-12-27T13:45:28.956Z,21.18
2018-12-27T13:47:57.291Z,21.13
2018-12-27T13:50:25.652Z,21.18
2018-12-27T13:52:53.894Z,21.22
2018-12-27T13:55:22.085Z,21.21
2018-12-27T13:57:50.314Z,21.24
2018-12-27T14:00:18.545Z,21.25
2018-12-27T14:02:46.791Z,21.22
2018-12-27T14:05:15.005Z,21.21
2018-12-27T14:07:43.242Z,21.19
2018-12-27T14:10:11.417Z,21.17
2018-12-27T14:12:39.646Z,21.15
2018-12-27T14:15:07.868Z,21.13
2018-12-27T14:17:36.079Z,21.18
2018-12-27T14:20:04.869Z,21.13
2018-12-27T14:22:33.043Z,21.18
2018-12-27T14:25:01.295Z,21.13
2018-12-27T14:27:29.526Z,21.12
2018-12-27T14:29:57.745Z,21.11
2018-12-27T14:32:26.065Z,21.07
2018-12-27T14:34:54.657Z,21.04
2018-12-27T14:37:22.913Z,21.05
2018-12-27T14:39:51.243Z,21.07
2018-12-27T14:42:19.470Z,21.05
2018-12-27T14:44:47.745Z,21.04
2018-12-27T14:47:16.058Z,21.04
2018-12-27T14:49:44.325Z,21.05
2018-12-27T14:52:12.507Z,21.00
2018-12-27T14:54:40.707Z,20.98
2018-12-27T14:57:08.941Z,21.00
2018-12-27T14:59:37.157Z,21.05
2018-12-27T15:02:05.437Z,20.98
2018-12-27T15:04:33.639Z,20.97
2018-12-27T15:07:01.842Z,21.08
2018-12-27T15:09:30.032Z,21.03
2018-12-27T15:11:58.293Z,21.01
2018-12-27T15:14:26.575Z,20.89
2018-12-27T15:16:54.779Z,20.90
2018-12-27T15:19:22.982Z,20.87
2018-12-27T15:21:51.168Z,20.87
2018-12-27T15:24:19.389Z,20.84
2018-12-27T15:26:47.654Z,20.84
2018-12-27T15:29:15.860Z,20.81
2018-12-27T15:31:44.035Z,20.79
2018-12-27T15:34:12.305Z,20.80
2018-12-27T15:36:40.499Z,20.76
2018-12-27T15:39:08.709Z,20.81
2018-12-27T15:41:36.925Z,20.74
2018-12-27T15:44:05.188Z,20.77
2018-12-27T15:46:33.447Z,20.77
2018-12-27T15:49:01.654Z,20.77
2018-12-27T15:51:29.841Z,20.76
2018-12-27T15:53:58.064Z,20.72
2018-12-27T15:56:26.238Z,20.73
2018-12-27T15:58:54.454Z,20.72
2018-12-27T16:01:22.723Z,20.64
2018-12-27T16:03:50.947Z,20.69
2018-12-27T16:06:19.112Z,20.67
2018-12-27T16:08:47.395Z,20.63
2018-12-27T16:11:15.585Z,20.62
2018-12-27T16:13:43.809Z,20.58
2018-12-27T16:16:12.052Z,20.60
2018-12-27T16:18:40.307Z,20.65
2018-12-27T16:21:08.603Z,20.57
2018-12-27T16:23:36.816Z,20.59
2018-12-27T16:26:05.018Z,20.59
2018-12-27T16:28:33.237Z,20.60
2018-12-27T16:31:01.504Z,20.66
2018-12-27T16:33:29.715Z,20.59
2018-12-27T16:35:57.908Z,20.95
2018-12-27T16:38:26.223Z,21.08
2018-12-27T16:40:54.441Z,20.97
2018-12-27T16:43:22.665Z,20.83
2018-12-27T16:45:50.892Z,20.68
2018-12-27T16:48:19.099Z,20.72
2018-12-27T16:50:47.281Z,20.71
2018-12-27T16:53:15.525Z,20.69
2018-12-27T16:55:43.762Z,20.69
2018-12-27T16:58:11.984Z,20.66
2018-12-27T17:00:40.174Z,20.64
2018-12-27T17:03:08.422Z,20.69
2018-12-27T17:05:36.654Z,20.65
2018-12-27T17:08:04.847Z,20.70
2018-12-27T17:10:33.032Z,20.63
2018-12-27T17:13:01.286Z,20.69
2018-12-27T17:15:29.566Z,20.65
2018-12-27T17:17:57.831Z,20.62
2018-12-27T17:20:26.057Z,20.65
2018-12-27T17:22:54.210Z,20.69
2018-12-27T17:25:22.401Z,20.66
2018-12-27T17:27:50.627Z,20.69
2018-12-27T17:30:19.157Z,20.65
2018-12-27T17:32:47.358Z,20.69
2018-12-27T17:35:15.577Z,20.71
2018-12-27T17:37:43.868Z,20.64
2018-12-27T17:40:12.158Z,20.71
2018-12-27T17:42:40.388Z,20.73
2018-12-27T17:45:08.626Z,20.76
2018-12-27T17:47:36.832Z,20.79
2018-12-27T17:50:05.189Z,21.03
2018-12-27T17:52:33.434Z,21.02
2018-12-27T17:55:01.654Z,21.03
2018-12-27T17:57:30.075Z,21.06
2018-12-27T17:59:58.221Z,21.03
2018-12-27T18:02:26.469Z,21.05
2018-12-27T18:04:54.718Z,21.02
2018-12-27T18:07:22.898Z,21.02
2018-12-27T18:09:51.108Z,20.97
2018-12-27T18:12:19.315Z,21.00
2018-12-27T18:14:54.494Z,20.98
2018-12-27T18:17:22.737Z,21.01
2018-12-27T18:19:50.982Z,21.00
2018-12-27T18:22:19.204Z,20.99
2018-12-27T18:24:47.407Z,20.72
2018-12-27T18:27:15.643Z,20.96
2018-12-27T18:29:43.818Z,20.93
2018-12-27T18:32:12.036Z,20.94
2018-12-27T18:34:40.222Z,20.92
2018-12-27T18:37:08.422Z,21.02
2018-12-27T18:39:36.701Z,20.99
2018-12-27T18:42:04.938Z,20.97
2018-12-27T18:44:33.104Z,20.92
2018-12-27T18:47:01.338Z,20.97
2018-12-27T18:49:29.521Z,20.97
2018-12-27T18:51:57.881Z,21.01
2018-12-27T18:54:26.153Z,21.00
2018-12-27T18:56:54.390Z,21.02
2018-12-27T18:59:22.614Z,21.00
2018-12-27T19:01:50.845Z,21.11
2018-12-27T19:04:19.030Z,21.07
2018-12-27T19:06:47.231Z,20.96
2018-12-27T19:09:15.439Z,20.92
2018-12-27T19:12:01.626Z,20.94
2018-12-27T19:14:29.839Z,20.87
2018-12-27T19:16:58.404Z,20.83
2018-12-27T19:19:26.632Z,20.89
2018-12-27T19:22:13.931Z,20.91
2018-12-27T19:24:42.174Z,20.88
2018-12-27T19:27:10.290Z,20.85
2018-12-27T19:29:38.414Z,20.90
2018-12-27T19:32:06.579Z,20.88
2018-12-27T19:34:34.735Z,20.86
2018-12-27T19:37:02.936Z,20.86
2018-12-27T19:39:31.147Z,20.89
2018-12-27T19:41:59.241Z,20.83
2018-12-27T19:44:27.395Z,20.86
2018-12-27T19:46:55.632Z,20.77
2018-12-27T19:49:23.872Z,20.81
2018-12-27T19:51:52.074Z,20.81
2018-12-27T19:54:20.225Z,20.82
2018-12-27T19:56:48.370Z,20.83
2018-12-27T19:59:16.485Z,20.91
2018-12-27T20:01:44.683Z,20.84
2018-12-27T20:04:12.925Z,20.83
2018-12-27T20:06:41.246Z,18.79
2018-12-27T20:09:11.623Z,20.84
2018-12-27T20:11:40.057Z,20.83
2018-12-27T20:14:08.520Z,20.80
2018-12-27T20:16:36.911Z,20.84
2018-12-27T20:19:05.156Z,20.79
2018-12-27T20:21:33.408Z,20.84
2018-12-27T20:24:01.723Z,20.83
2018-12-27T20:26:30.046Z,20.73
2018-12-27T20:28:58.319Z,20.81
2018-12-27T20:31:26.588Z,20.81
2018-12-27T20:33:54.900Z,20.78
2018-12-27T20:36:24.349Z,20.83
2018-12-27T20:38:52.598Z,20.79
2018-12-27T20:41:21.172Z,20.77
2018-12-27T20:43:49.551Z,20.74
2018-12-27T20:46:17.888Z,20.70
2018-12-27T20:48:46.195Z,20.69
2018-12-27T20:51:14.830Z,20.72
2018-12-27T20:53:43.114Z,20.79
2018-12-27T20:56:11.452Z,20.85
2018-12-27T20:58:39.746Z,21.10
2018-12-27T21:01:08.140Z,21.07
2018-12-27T21:03:36.417Z,20.98
2018-12-27T21:06:04.956Z,20.80
2018-12-27T21:08:33.210Z,20.78
2018-12-27T21:11:01.503Z,20.73
2018-12-27T21:13:29.796Z,20.83
2018-12-27T21:15:58.102Z,20.75
2018-12-27T21:18:26.344Z,20.82
2018-12-27T21:20:54.666Z,20.79
2018-12-27T21:23:22.910Z,20.76
2018-12-27T21:25:51.299Z,20.76
2018-12-27T21:28:19.590Z,20.78
2018-12-27T21:30:47.903Z,20.80
2018-12-27T21:33:16.202Z,20.85
2018-12-27T21:35:44.543Z,20.81
2018-12-27T21:38:12.842Z,20.74
2018-12-27T21:40:41.077Z,20.79
2018-12-27T21:43:09.329Z,20.79
2018-12-27T21:45:37.686Z,20.84
2018-12-27T21:48:06.071Z,20.83
2018-12-27T21:50:34.412Z,20.85
2018-12-27T21:53:02.700Z,20.80
2018-12-27T21:55:31.017Z,20.79
2018-12-27T21:57:59.383Z,20.74
2018-12-27T22:00:27.641Z,20.77
2018-12-27T22:02:55.950Z,20.80
2018-12-27T22:05:24.223Z,20.82
2018-12-27T22:07:52.443Z,20.80
2018-12-27T22:10:20.725Z,20.90
2018-12-27T22:12:48.906Z,21.22
2018-12-27T22:15:17.196Z,21.32
2018-12-27T22:17:45.563Z,21.39
2018-12-27T22:20:13.830Z,21.12
2018-12-27T22:22:42.025Z,21.15
2018-12-27T22:25:10.431Z,21.22
2018-12-27T22:27:38.854Z,21.32
2018-12-27T22:30:08.600Z,21.26
2018-12-27T22:32:36.749Z,21.25
2018-12-27T22:35:05.042Z,21.18
2018-12-27T22:37:33.226Z,21.10
2018-12-27T22:40:01.443Z,21.20
2018-12-27T22:42:29.714Z,21.21
2018-12-27T22:44:57.911Z,21.19
2018-12-27T22:47:26.159Z,21.13
2018-12-27T22:49:54.617Z,21.12
2018-12-27T22:52:22.770Z,21.14
2018-12-27T22:54:50.995Z,21.21
2018-12-27T22:57:19.538Z,21.18
2018-12-27T22:59:47.823Z,21.15
2018-12-27T23:02:16.095Z,21.14
2018-12-27T23:04:44.274Z,21.18
2018-12-27T23:07:12.538Z,21.18
2018-12-27T23:09:40.747Z,21.18
2018-12-27T23:12:08.979Z,21.17
2018-12-27T23:14:37.160Z,21.13
2018-12-27T23:17:05.310Z,21.22
2018-12-27T23:19:33.511Z,21.38
2018-12-27T23:22:01.682Z,21.35
2018-12-27T23:24:29.879Z,21.23
2018-12-27T23:26:58.086Z,21.12
2018-12-27T23:29:26.306Z,21.01
2018-12-27T23:31:54.483Z,21.04
2018-12-27T23:34:22.664Z,21.09
2018-12-27T23:36:50.815Z,21.10
2018-12-27T23:39:19.006Z,21.16
2018-12-27T23:41:47.253Z,21.17
2018-12-27T23:44:15.558Z,21.21
2018-12-27T23:46:43.703Z,21.12
2018-12-27T23:49:11.989Z,21.13
2018-12-27T23:51:40.176Z,21.12
2018-12-27T23:54:08.340Z,21.10
2018-12-27T23:56:36.553Z,21.14
2018-12-27T23:59:04.784Z,21.11
